»·PEaware :: CGBMO KPAE-KBLI

CGBMO :: KPAE-KBLI

FLIGHT INFORMATION

Flight Status: Arrived
Operator: Unknown
More flights by this operator :: More flights under this callsign
Pilot: Darcy E. (30361)
Aircraft: CESSNA 172 SKYHAWK
(C172)
More flights by this aircraft type
Origin: KPAE Paine Field/Snohomish Co.
United States
Destination: KBLI Bellingham Intl
United States
More flights between these airports :: More routes between these airports
Route: PAE V23 IWANY
File this flight plan on PilotEdge
Remarks:
Altitude:
(Current/Filed)
6,000ft
Speed:
(Current/Filed)
110kts
Departed: 22-Feb-21 08:36 PM
Arrived: 22-Feb-21 09:19 PM
Distance/Time
Traveled:
54nm/0:43
Distance/Time
To Go:
Arrived

Flight Plot

Page will automatically refresh every two minutes.

Flight plan parsing failed; only flown route is shown


Map Options




Map Legend


Flown Route
Filed Route
Departure Airport
Arrival Airport
Navaid (VOR, NDB)
Fix

Horizontal Profiles

Position Reports

Time Latitude Longitude Heading Altitude Ground
Speed
22-Feb-21 20:12 47.903708 -122.270468 179 582ft 0kts
22-Feb-21 20:13 47.903708 -122.270468 179 582ft 0kts
22-Feb-21 20:14 47.903708 -122.270468 179 582ft 0kts
22-Feb-21 20:15 47.903708 -122.270468 179 582ft 0kts
22-Feb-21 20:16 47.903708 -122.270468 179 582ft 0kts
22-Feb-21 20:17 47.903708 -122.270468 179 582ft 0kts
22-Feb-21 20:18 47.903708 -122.270468 179 582ft 0kts
22-Feb-21 20:19 47.903708 -122.270468 179 582ft 0kts
22-Feb-21 20:20 47.903708 -122.270468 179 582ft 0kts
22-Feb-21 20:21 47.903708 -122.270468 179 582ft 0kts
22-Feb-21 20:22 47.903708 -122.270468 179 582ft 0kts
22-Feb-21 20:23 47.903708 -122.270468 179 582ft 0kts
22-Feb-21 20:24 47.903708 -122.270468 179 582ft 0kts
22-Feb-21 20:25 47.903708 -122.270468 179 582ft 0kts
22-Feb-21 20:26 47.903708 -122.270468 179 582ft 0kts
22-Feb-21 20:27 47.903708 -122.270468 179 582ft 0kts
22-Feb-21 20:28 47.904966 -122.271120 0 582ft 17kts
22-Feb-21 20:29 47.905795 -122.271075 358 581ft 0kts
22-Feb-21 20:30 47.905795 -122.271075 358 581ft 0kts
22-Feb-21 20:31 47.905795 -122.271075 358 581ft 0kts
22-Feb-21 20:32 47.905795 -122.271075 358 581ft 0kts
22-Feb-21 20:33 47.905795 -122.271075 358 581ft 0kts
22-Feb-21 20:34 47.905795 -122.271075 358 581ft 0kts
22-Feb-21 20:35 47.901391 -122.271526 177 650ft 74kts
22-Feb-21 20:36 47.879460 -122.271224 184 1560ft 84kts
22-Feb-21 20:37 47.855912 -122.273744 179 2426ft 88kts
22-Feb-21 20:38 47.833640 -122.279156 243 3148ft 88kts
22-Feb-21 20:39 47.845963 -122.293876 352 3845ft 75kts
22-Feb-21 20:40 47.865917 -122.296645 343 4561ft 72kts
22-Feb-21 20:41 47.881749 -122.296876 7 5063ft 75kts
22-Feb-21 20:42 47.897139 -122.291355 11 5590ft 75kts
22-Feb-21 20:43 47.912168 -122.281206 10 5969ft 91kts
22-Feb-21 20:44 47.931121 -122.283256 346 6011ft 102kts
22-Feb-21 20:45 47.951879 -122.288084 347 6000ft 94kts
22-Feb-21 20:46 47.971821 -122.293327 346 6072ft 99kts
22-Feb-21 20:47 47.992444 -122.300272 347 6049ft 100kts
22-Feb-21 20:48 48.014182 -122.305279 349 5938ft 102kts
22-Feb-21 20:49 48.035479 -122.312699 342 5954ft 99kts
22-Feb-21 20:50 48.057350 -122.319774 340 5921ft 99kts
22-Feb-21 20:51 48.078625 -122.327893 347 5993ft 97kts
22-Feb-21 20:52 48.102713 -122.334321 344 6005ft 97kts
22-Feb-21 20:53 48.124942 -122.341108 349 6126ft 95kts
22-Feb-21 20:54 48.147761 -122.349877 341 6129ft 95kts
22-Feb-21 20:55 48.167700 -122.358430 337 6104ft 99kts
22-Feb-21 20:56 48.187996 -122.362000 338 6010ft 101kts
22-Feb-21 20:57 48.207874 -122.365168 349 6027ft 100kts
22-Feb-21 20:58 48.227968 -122.371665 338 5969ft 100kts
22-Feb-21 20:59 48.250191 -122.377801 341 5947ft 101kts
22-Feb-21 21:00 48.274614 -122.386388 336 5687ft 101kts
22-Feb-21 21:01 48.302461 -122.397353 342 4888ft 100kts
22-Feb-21 21:02 48.333074 -122.405563 338 4324ft 96kts
22-Feb-21 21:03 48.362872 -122.413025 335 4564ft 98kts
22-Feb-21 21:04 48.395451 -122.421626 336 4119ft 103kts
22-Feb-21 21:05 48.425087 -122.430473 341 4166ft 96kts
22-Feb-21 21:06 48.457458 -122.436160 347 3989ft 109kts
22-Feb-21 21:07 48.488490 -122.456423 314 3339ft 100kts
22-Feb-21 21:08 48.516480 -122.479142 320 3004ft 91kts
22-Feb-21 21:09 48.540958 -122.506019 323 2992ft 97kts
22-Feb-21 21:10 48.568594 -122.531165 328 2520ft 94kts
22-Feb-21 21:11 48.599805 -122.531232 343 2567ft 79kts
22-Feb-21 21:12 48.629718 -122.534126 343 2606ft 98kts
22-Feb-21 21:13 48.659150 -122.537370 8 2682ft 103kts
22-Feb-21 21:14 48.688928 -122.538798 359 2267ft 107kts
22-Feb-21 21:15 48.724318 -122.537232 349 1461ft 102kts
22-Feb-21 21:16 48.760859 -122.536848 354 730ft 98kts
22-Feb-21 21:17 48.789465 -122.537545 358 167ft 81kts
22-Feb-21 21:18 48.796921 -122.536310 55 158ft 3kts
22-Feb-21 21:19 48.796753 -122.534785 92 158ft 0kts
22-Feb-21 21:20 48.796753 -122.534785 92 158ft 0kts

Navigation Log

Ident Type
Flight plan parsing failed, navigation log unavailable